Weather at Volgograd International Airport

Public forecast

Using degrees Celsius for public forecast. Weather courtesy of forecast.io.

Current aviation weather report (METAR) for Volgograd International Airport

Retrieved 2021/04/22 00:00 UTC (22 minutes ago):

URWW 220000Z 22002MPS CAVOK 07/06 Q1020 R24/010070 TEMPO 0400 FG OVC002

Aviation forecast (TAF) for Volgograd International Airport

Forecast is more than 12 hours old.

Retrieved 2015/12/24 15:15 UTC (5 years ago):

TAF COR TAF COR URWW 241510Z 2415/2524 30013G18MPS 9999 BKN007 SCT020CB BKN100 TEMPO 2415/2421 27008G13MPS 2100 -SHRA BR